createdAt,value
2022-08-02T00:00:39.220Z,55.18
2022-08-02T00:03:08.835Z,55.17
2022-08-02T00:05:36.889Z,55.36
2022-08-02T00:08:04.442Z,55.26
2022-08-02T00:10:32.292Z,55.49
2022-08-02T00:12:59.892Z,55.50
2022-08-02T00:15:27.321Z,55.83
2022-08-02T00:17:54.640Z,56.07
2022-08-02T00:20:22.152Z,56.12
2022-08-02T00:22:49.488Z,56.12
2022-08-02T00:25:16.817Z,56.18
2022-08-02T00:27:44.362Z,55.94
2022-08-02T00:30:12.136Z,55.89
2022-08-02T00:32:41.012Z,55.87
2022-08-02T00:35:09.757Z,56.04
2022-08-02T00:37:41.333Z,56.03
2022-08-02T00:40:10.054Z,55.77
2022-08-02T00:42:38.421Z,55.66
2022-08-02T00:45:06.803Z,55.58
2022-08-02T00:47:34.108Z,55.77
2022-08-02T00:50:01.962Z,55.59
2022-08-02T00:52:29.493Z,56.17
2022-08-02T00:54:56.809Z,56.20
2022-08-02T00:57:24.298Z,56.20
2022-08-02T00:59:51.572Z,56.31
2022-08-02T01:02:18.889Z,56.54
2022-08-02T01:04:46.488Z,56.23
2022-08-02T01:07:14.593Z,56.60
2022-08-02T01:09:42.847Z,56.53
2022-08-02T01:12:11.845Z,56.49
2022-08-02T01:14:43.551Z,56.61
2022-08-02T01:17:29.241Z,56.62
2022-08-02T01:20:20.301Z,56.71
2022-08-02T01:23:12.793Z,56.76
2022-08-02T01:25:54.252Z,56.44
2022-08-02T01:28:37.994Z,56.56
2022-08-02T01:31:18.499Z,56.83
2022-08-02T01:33:56.784Z,56.72
2022-08-02T01:36:29.029Z,56.81
2022-08-02T01:38:57.805Z,56.95
2022-08-02T01:41:28.105Z,57.15
2022-08-02T01:44:00.330Z,57.32
2022-08-02T01:46:30.630Z,56.97
2022-08-02T01:49:01.901Z,57.20
2022-08-02T01:51:50.548Z,56.89
2022-08-02T01:54:22.166Z,57.09
2022-08-02T01:56:52.154Z,56.81
2022-08-02T01:59:22.910Z,57.28
2022-08-02T02:01:54.023Z,56.99
2022-08-02T02:04:22.772Z,56.84
2022-08-02T02:06:51.481Z,57.33
2022-08-02T02:09:20.167Z,57.26
2022-08-02T02:12:12.117Z,57.30
2022-08-02T02:14:38.442Z,57.11
2022-08-02T02:17:07.789Z,56.93
2022-08-02T02:19:37.730Z,57.14
2022-08-02T02:22:05.682Z,57.02
2022-08-02T02:24:35.032Z,57.16
2022-08-02T02:27:07.817Z,57.24
2022-08-02T02:29:39.794Z,57.56
2022-08-02T02:32:07.540Z,57.03
2022-08-02T02:34:43.368Z,56.87
2022-08-02T02:37:20.740Z,56.59
2022-08-02T02:39:52.241Z,56.92
2022-08-02T02:42:26.622Z,57.00
2022-08-02T02:44:55.268Z,56.74
2022-08-02T02:47:40.792Z,56.85
2022-08-02T02:50:11.217Z,57.14
2022-08-02T02:52:40.517Z,56.74
2022-08-02T02:55:09.200Z,56.67
2022-08-02T02:57:37.956Z,56.63
2022-08-02T03:00:09.149Z,56.30
2022-08-02T03:02:39.781Z,56.24
2022-08-02T03:05:09.537Z,56.80
2022-08-02T03:07:37.609Z,56.44
2022-08-02T03:10:06.815Z,56.35
2022-08-02T03:12:36.201Z,56.34
2022-08-02T03:15:08.252Z,56.36
2022-08-02T03:17:44.218Z,56.07
2022-08-02T03:20:17.344Z,56.15
2022-08-02T03:22:46.465Z,56.30
2022-08-02T03:25:15.629Z,56.11
2022-08-02T03:27:43.105Z,56.25
2022-08-02T03:30:12.824Z,56.37
2022-08-02T03:32:42.784Z,56.47
2022-08-02T03:35:12.632Z,56.36
2022-08-02T03:37:41.014Z,56.33
2022-08-02T03:40:10.883Z,56.78
2022-08-02T03:42:40.400Z,56.58
2022-08-02T03:45:10.349Z,56.51
2022-08-02T03:47:39.192Z,56.38
2022-08-02T03:50:13.327Z,56.36
2022-08-02T03:52:44.052Z,56.31
2022-08-02T03:55:13.239Z,56.41
2022-08-02T03:57:44.255Z,56.30
2022-08-02T04:00:17.972Z,56.28
2022-08-02T04:02:46.613Z,56.22
2022-08-02T04:05:15.112Z,56.43
2022-08-02T04:08:36.196Z,56.43
2022-08-02T04:10:31.861Z,55.96
2022-08-02T04:12:59.376Z,56.06
2022-08-02T04:15:26.897Z,56.28
2022-08-02T04:17:59.889Z,56.11
2022-08-02T04:20:33.625Z,56.38
2022-08-02T04:23:05.356Z,56.45
2022-08-02T04:25:35.383Z,55.93
2022-08-02T04:28:17.538Z,56.10
2022-08-02T04:30:50.878Z,55.76
2022-08-02T04:33:18.641Z,55.87
2022-08-02T04:35:46.156Z,56.08
2022-08-02T04:38:15.658Z,56.13
2022-08-02T04:40:54.500Z,55.85
2022-08-02T04:43:23.319Z,56.04
2022-08-02T04:45:52.880Z,55.90
2022-08-02T04:48:21.750Z,55.89
2022-08-02T04:50:49.204Z,55.96
2022-08-02T04:53:17.049Z,56.27
2022-08-02T04:55:44.769Z,55.90
2022-08-02T04:58:38.802Z,55.65
2022-08-02T05:01:00.905Z,55.92
2022-08-02T05:03:28.497Z,55.90
2022-08-02T05:05:55.952Z,55.94
2022-08-02T05:08:23.740Z,55.74
2022-08-02T05:10:51.230Z,56.06
2022-08-02T05:13:18.705Z,55.91
2022-08-02T05:15:50.644Z,56.41
2022-08-02T05:18:18.127Z,56.38
2022-08-02T05:20:45.581Z,56.10
2022-08-02T05:23:13.500Z,55.87
2022-08-02T05:25:40.892Z,55.69
2022-08-02T05:28:11.636Z,55.97
2022-08-02T05:30:40.513Z,56.15
2022-08-02T05:33:08.214Z,56.20
2022-08-02T05:35:35.718Z,56.72
2022-08-02T05:38:03.478Z,56.62
2022-08-02T05:40:31.254Z,56.67
2022-08-02T05:42:58.796Z,56.44
2022-08-02T05:45:26.561Z,56.38
2022-08-02T05:47:54.029Z,56.14
2022-08-02T05:50:21.740Z,56.52
2022-08-02T05:53:05.178Z,56.84
2022-08-02T05:55:45.448Z,56.63
2022-08-02T05:58:36.729Z,56.85
2022-08-02T06:01:05.512Z,56.78
2022-08-02T06:03:39.925Z,56.34
2022-08-02T06:06:17.677Z,56.40
2022-08-02T06:08:48.443Z,56.26
2022-08-02T06:11:37.012Z,56.03
2022-08-02T06:14:07.312Z,56.10
2022-08-02T06:16:42.193Z,56.33
2022-08-02T06:19:12.695Z,56.27
2022-08-02T06:22:31.754Z,56.26
2022-08-02T06:24:33.572Z,55.91
2022-08-02T06:27:02.811Z,56.00
2022-08-02T06:29:35.698Z,55.67
2022-08-02T06:32:08.709Z,55.56
2022-08-02T06:34:38.326Z,55.86
2022-08-02T06:37:41.260Z,55.89
2022-08-02T06:40:21.186Z,56.10
2022-08-02T06:43:27.545Z,55.73
2022-08-02T06:45:55.272Z,55.74
2022-08-02T06:48:42.833Z,56.08
2022-08-02T06:51:10.608Z,55.88
2022-08-02T06:53:37.989Z,56.18
2022-08-02T06:56:07.169Z,55.54
2022-08-02T06:58:37.209Z,56.05
2022-08-02T07:01:07.353Z,55.33
2022-08-02T07:03:35.537Z,55.94
2022-08-02T07:06:03.802Z,55.39
2022-08-02T07:08:35.861Z,55.43
2022-08-02T07:11:03.948Z,55.61
2022-08-02T07:13:34.728Z,55.31
2022-08-02T07:16:05.729Z,55.89
2022-08-02T07:18:34.990Z,56.20
2022-08-02T07:21:05.314Z,56.20
2022-08-02T07:23:32.980Z,56.62
2022-08-02T07:26:03.025Z,56.37
2022-08-02T07:28:32.195Z,56.57
2022-08-02T07:30:59.701Z,56.62
2022-08-02T07:33:39.095Z,56.71
2022-08-02T07:36:09.660Z,56.55
2022-08-02T07:38:44.415Z,56.94
2022-08-02T07:41:13.237Z,56.58
2022-08-02T07:43:40.734Z,56.55
2022-08-02T07:46:08.430Z,56.49
2022-08-02T07:48:35.832Z,56.96
2022-08-02T07:51:04.243Z,56.83
2022-08-02T07:53:51.259Z,56.76
2022-08-02T07:56:19.361Z,56.86
2022-08-02T07:58:47.064Z,56.69
2022-08-02T08:01:15.446Z,56.71
2022-08-02T08:03:43.059Z,56.54
2022-08-02T08:06:11.458Z,56.47
2022-08-02T08:08:38.888Z,56.37
2022-08-02T08:11:06.526Z,56.61
2022-08-02T08:13:34.936Z,56.84
2022-08-02T08:16:02.569Z,56.80
2022-08-02T08:18:30.158Z,56.70
2022-08-02T08:20:58.011Z,56.35
2022-08-02T08:23:25.571Z,56.18
2022-08-02T08:25:54.174Z,55.84
2022-08-02T08:28:21.789Z,55.89
2022-08-02T08:30:49.451Z,55.72
2022-08-02T08:33:16.938Z,55.71
2022-08-02T08:35:44.636Z,55.99
2022-08-02T08:38:12.332Z,55.81
2022-08-02T08:40:42.061Z,55.92
2022-08-02T08:43:13.697Z,55.59
2022-08-02T08:45:56.077Z,55.33
2022-08-02T08:48:30.470Z,55.10
2022-08-02T08:51:08.927Z,54.88
2022-08-02T08:53:41.122Z,55.14
2022-08-02T08:56:15.728Z,55.15
2022-08-02T08:58:47.485Z,55.35
2022-08-02T09:01:16.915Z,54.99
2022-08-02T09:03:45.521Z,55.06
2022-08-02T09:06:13.287Z,55.41
2022-08-02T09:08:42.128Z,55.33
2022-08-02T09:11:18.100Z,55.02
2022-08-02T09:13:56.869Z,54.84
2022-08-02T09:16:28.120Z,54.58
2022-08-02T09:18:56.489Z,54.51
2022-08-02T09:21:24.266Z,54.81
2022-08-02T09:23:52.863Z,55.09
2022-08-02T09:26:22.766Z,54.83
2022-08-02T09:28:52.505Z,55.28
2022-08-02T09:31:22.075Z,55.05
2022-08-02T09:33:58.497Z,55.18
2022-08-02T09:36:28.199Z,55.13
2022-08-02T09:39:04.566Z,54.67
2022-08-02T09:41:35.423Z,54.87
2022-08-02T09:44:06.793Z,54.63
2022-08-02T09:46:37.894Z,54.43
2022-08-02T09:49:08.137Z,54.64
2022-08-02T09:51:39.353Z,54.59
2022-08-02T09:54:11.807Z,54.56
2022-08-02T09:56:46.282Z,54.40
2022-08-02T09:59:15.593Z,54.26
2022-08-02T10:01:51.506Z,54.29
2022-08-02T10:04:34.360Z,54.23
2022-08-02T10:07:21.651Z,53.91
2022-08-02T10:09:51.104Z,54.20
2022-08-02T10:12:20.610Z,53.97
2022-08-02T10:14:50.765Z,54.42
2022-08-02T10:17:19.393Z,54.45
2022-08-02T10:20:02.877Z,54.22
2022-08-02T10:22:34.392Z,54.24
2022-08-02T10:25:04.715Z,54.20
2022-08-02T10:27:49.263Z,54.28
2022-08-02T10:30:24.569Z,54.01
2022-08-02T10:32:54.122Z,54.32
2022-08-02T10:35:25.945Z,54.31
2022-08-02T10:37:58.087Z,54.62
2022-08-02T10:40:28.278Z,54.28
2022-08-02T10:43:00.815Z,54.52
2022-08-02T10:45:30.268Z,54.33
2022-08-02T10:48:16.949Z,54.17
2022-08-02T10:50:47.888Z,54.20
2022-08-02T10:53:24.017Z,54.01
2022-08-02T10:55:52.808Z,54.16
2022-08-02T10:58:26.256Z,54.09
2022-08-02T11:00:57.778Z,54.52
2022-08-02T11:03:28.458Z,54.49
2022-08-02T11:06:09.569Z,54.19
2022-08-02T11:09:32.365Z,54.08
2022-08-02T11:12:04.720Z,54.00
2022-08-02T11:14:35.452Z,54.08
2022-08-02T11:17:11.701Z,54.08
2022-08-02T11:20:11.926Z,53.50
2022-08-02T11:22:40.368Z,53.18
2022-08-02T11:26:02.208Z,53.32
2022-08-02T11:28:25.275Z,52.89
2022-08-02T11:30:58.044Z,52.93
2022-08-02T11:33:33.343Z,53.06
2022-08-02T11:36:09.891Z,52.77
2022-08-02T11:38:37.466Z,52.47
2022-08-02T11:41:05.983Z,52.58
2022-08-02T11:43:33.917Z,52.72
2022-08-02T11:46:04.930Z,52.55
2022-08-02T11:48:37.351Z,52.33
2022-08-02T11:51:10.401Z,52.31
2022-08-02T11:53:46.216Z,52.49
2022-08-02T11:56:21.720Z,52.08
2022-08-02T11:59:07.423Z,52.15
2022-08-02T12:01:45.067Z,52.31
2022-08-02T12:04:19.417Z,52.36
2022-08-02T12:07:01.013Z,52.59
2022-08-02T12:09:31.827Z,52.39
2022-08-02T12:11:59.961Z,52.10
2022-08-02T12:14:29.948Z,51.93
2022-08-02T12:17:17.866Z,52.19
2022-08-02T12:19:45.681Z,52.07
2022-08-02T12:22:19.360Z,52.54
2022-08-02T12:24:54.995Z,52.23
2022-08-02T12:27:34.877Z,52.43
2022-08-02T12:30:08.746Z,52.31
2022-08-02T12:32:38.691Z,52.46
2022-08-02T12:35:15.097Z,52.73
2022-08-02T12:37:56.532Z,52.83
2022-08-02T12:40:26.112Z,52.65
2022-08-02T12:43:00.008Z,52.64
2022-08-02T12:45:40.029Z,52.03
2022-08-02T12:48:09.751Z,52.45
2022-08-02T12:50:38.654Z,52.21
2022-08-02T12:53:07.585Z,52.44
2022-08-02T12:56:02.387Z,51.77
2022-08-02T12:58:25.818Z,52.36
2022-08-02T13:00:55.783Z,52.03
2022-08-02T13:04:09.314Z,51.74
2022-08-02T13:06:32.294Z,51.94
2022-08-02T13:09:00.198Z,51.71
2022-08-02T13:11:28.846Z,51.30
2022-08-02T13:13:56.433Z,51.67
2022-08-02T13:16:30.600Z,51.63
2022-08-02T13:18:59.457Z,51.34
2022-08-02T13:21:41.221Z,51.34
2022-08-02T13:24:33.318Z,51.23
2022-08-02T13:27:04.575Z,51.32
2022-08-02T13:29:37.966Z,51.44
2022-08-02T13:32:05.786Z,51.01
2022-08-02T13:34:33.309Z,51.19
2022-08-02T13:37:01.650Z,51.21
2022-08-02T13:39:29.350Z,50.84
2022-08-02T13:41:56.824Z,51.12
2022-08-02T13:44:24.557Z,51.33
2022-08-02T13:46:51.985Z,51.39
2022-08-02T13:49:21.569Z,50.92
2022-08-02T13:51:50.138Z,50.94
2022-08-02T13:54:17.578Z,51.08
2022-08-02T13:56:45.150Z,51.26
2022-08-02T13:59:54.052Z,51.54
2022-08-02T14:02:00.380Z,51.61
2022-08-02T14:04:29.693Z,51.36
2022-08-02T14:06:58.826Z,51.22
2022-08-02T14:09:26.596Z,51.00
2022-08-02T14:11:54.341Z,51.41
2022-08-02T14:14:21.755Z,50.84
2022-08-02T14:16:49.205Z,50.73
2022-08-02T14:19:17.458Z,50.49
2022-08-02T14:21:46.370Z,50.63
2022-08-02T14:24:19.324Z,50.34
2022-08-02T14:26:48.307Z,50.15
2022-08-02T14:29:16.995Z,50.04
2022-08-02T14:31:45.205Z,50.03
2022-08-02T14:34:13.680Z,49.87
2022-08-02T14:36:41.343Z,50.01
2022-08-02T14:39:09.278Z,50.07
2022-08-02T14:41:58.227Z,50.05
2022-08-02T14:44:25.815Z,50.07
2022-08-02T14:46:53.727Z,50.10
2022-08-02T14:49:26.079Z,50.23
2022-08-02T14:51:55.184Z,50.47
2022-08-02T14:54:28.176Z,50.63
2022-08-02T14:57:00.580Z,50.39
2022-08-02T14:59:28.828Z,50.29
2022-08-02T15:01:57.107Z,50.48
2022-08-02T15:04:25.160Z,49.90
2022-08-02T15:06:52.838Z,49.80
2022-08-02T15:09:20.935Z,49.80
2022-08-02T15:11:49.653Z,49.68
2022-08-02T15:14:22.341Z,49.34
2022-08-02T15:16:57.473Z,49.75
2022-08-02T15:19:56.998Z,49.58
2022-08-02T15:22:19.218Z,49.44
2022-08-02T15:24:48.294Z,49.55
2022-08-02T15:27:16.492Z,49.57
2022-08-02T15:29:46.056Z,49.42
2022-08-02T15:32:19.768Z,49.40
2022-08-02T15:34:47.991Z,49.46
2022-08-02T15:37:15.551Z,49.44
2022-08-02T15:39:43.665Z,49.97
2022-08-02T15:42:11.646Z,49.87
2022-08-02T15:44:39.784Z,49.92
2022-08-02T15:47:08.453Z,50.07
2022-08-02T15:49:41.074Z,50.09
2022-08-02T15:52:09.361Z,50.15
2022-08-02T15:54:37.248Z,49.84
2022-08-02T15:57:04.872Z,49.96
2022-08-02T15:59:32.399Z,50.03
2022-08-02T16:02:00.265Z,50.42
2022-08-02T16:04:27.797Z,49.90
2022-08-02T16:06:55.188Z,50.28
2022-08-02T16:09:22.902Z,49.97
2022-08-02T16:11:50.558Z,49.91
2022-08-02T16:14:17.986Z,50.36
2022-08-02T16:16:45.736Z,50.17
2022-08-02T16:19:46.498Z,50.19
2022-08-02T16:22:01.108Z,50.02
2022-08-02T16:24:28.646Z,50.09
2022-08-02T16:26:56.225Z,50.23
2022-08-02T16:29:24.000Z,49.79
2022-08-02T16:31:51.366Z,49.96
2022-08-02T16:34:19.043Z,50.12
2022-08-02T16:36:47.035Z,50.31
2022-08-02T16:39:15.666Z,50.22
2022-08-02T16:41:52.005Z,50.15
2022-08-02T16:44:29.570Z,49.61
2022-08-02T16:47:00.482Z,49.76
2022-08-02T16:50:06.078Z,49.52
2022-08-02T16:52:16.875Z,48.96
2022-08-02T16:54:49.687Z,49.39
2022-08-02T16:57:20.439Z,49.38
2022-08-02T16:59:57.711Z,49.28
2022-08-02T17:02:27.810Z,49.84
2022-08-02T17:04:56.800Z,49.68
2022-08-02T17:08:07.840Z,49.64
2022-08-02T17:10:13.134Z,49.61
2022-08-02T17:12:40.953Z,49.96
2022-08-02T17:16:15.948Z,49.92
2022-08-02T17:17:57.729Z,49.98
2022-08-02T17:20:25.273Z,49.96
2022-08-02T17:22:53.313Z,49.99
2022-08-02T17:25:22.566Z,50.34
2022-08-02T17:27:55.995Z,50.12
2022-08-02T17:30:26.653Z,49.91
2022-08-02T17:32:57.711Z,50.41
2022-08-02T17:35:43.850Z,50.33
2022-08-02T17:38:17.946Z,50.62
2022-08-02T17:40:45.981Z,50.81
2022-08-02T17:43:14.686Z,50.67
2022-08-02T17:46:00.000Z,50.82
2022-08-02T17:48:55.002Z,50.85
2022-08-02T17:51:33.000Z,50.66
2022-08-02T17:54:13.839Z,51.04
2022-08-02T17:56:42.557Z,50.88
2022-08-02T17:59:22.712Z,50.91
2022-08-02T18:02:11.669Z,50.68
2022-08-02T18:04:39.227Z,50.95
2022-08-02T18:07:09.775Z,50.98
2022-08-02T18:09:41.516Z,51.16
2022-08-02T18:12:14.344Z,51.00
2022-08-02T18:14:46.205Z,51.30
2022-08-02T18:17:17.148Z,52.05
2022-08-02T18:19:57.390Z,51.84
2022-08-02T18:22:31.368Z,51.85
2022-08-02T18:24:59.096Z,51.86
2022-08-02T18:27:26.740Z,51.75
2022-08-02T18:30:00.355Z,51.94
2022-08-02T18:33:54.641Z,51.52
2022-08-02T18:35:21.022Z,51.67
2022-08-02T18:37:57.054Z,52.16
2022-08-02T18:40:30.011Z,52.03
2022-08-02T18:42:57.688Z,52.12
2022-08-02T18:45:49.537Z,52.08
2022-08-02T18:48:17.404Z,52.18
2022-08-02T18:50:47.022Z,52.22
2022-08-02T18:53:16.343Z,52.31
2022-08-02T18:56:02.758Z,52.13
2022-08-02T18:58:32.175Z,52.16
2022-08-02T19:01:05.176Z,52.09
2022-08-02T19:03:49.418Z,51.98
2022-08-02T19:06:19.465Z,51.77
2022-08-02T19:09:06.105Z,51.75
2022-08-02T19:11:36.369Z,51.73
2022-08-02T19:14:03.945Z,51.64
2022-08-02T19:16:36.686Z,51.83
2022-08-02T19:19:06.216Z,51.32
2022-08-02T19:22:17.438Z,51.28
2022-08-02T19:24:21.583Z,51.64
2022-08-02T19:26:51.629Z,51.22
2022-08-02T19:29:25.000Z,51.64
2022-08-02T19:32:39.314Z,51.47
2022-08-02T19:34:56.181Z,51.54
2022-08-02T19:37:24.007Z,51.62
2022-08-02T19:39:51.487Z,51.46
2022-08-02T19:42:19.303Z,51.21
2022-08-02T19:44:47.318Z,51.25
2022-08-02T19:47:19.419Z,51.08
2022-08-02T19:49:49.003Z,51.32
2022-08-02T19:52:21.177Z,51.09
2022-08-02T19:54:55.888Z,51.61
2022-08-02T19:57:25.461Z,51.17
2022-08-02T19:59:54.054Z,51.17
2022-08-02T20:02:22.767Z,51.24
2022-08-02T20:04:53.075Z,51.24
2022-08-02T20:07:55.301Z,51.33
2022-08-02T20:10:11.226Z,51.31
2022-08-02T20:12:40.206Z,51.37
2022-08-02T20:15:14.626Z,50.96
2022-08-02T20:17:47.443Z,51.28
2022-08-02T20:20:17.956Z,51.21
2022-08-02T20:23:34.071Z,50.81
2022-08-02T20:25:55.900Z,50.81
2022-08-02T20:28:24.330Z,51.23
2022-08-02T20:30:51.949Z,51.13
2022-08-02T20:33:23.328Z,51.02
2022-08-02T20:35:53.134Z,50.87
2022-08-02T20:38:24.997Z,50.84
2022-08-02T20:40:55.888Z,51.05
2022-08-02T20:43:23.428Z,51.10
2022-08-02T20:46:00.472Z,50.85
2022-08-02T20:48:30.239Z,51.07
2022-08-02T20:50:57.955Z,51.25
2022-08-02T20:53:30.010Z,51.11
2022-08-02T20:55:58.296Z,50.86
2022-08-02T20:58:27.348Z,51.16
2022-08-02T21:00:59.421Z,51.17
2022-08-02T21:03:38.720Z,50.81
2022-08-02T21:06:14.680Z,50.97
2022-08-02T21:08:46.089Z,50.62
2022-08-02T21:11:14.554Z,50.81
2022-08-02T21:13:47.157Z,51.10
2022-08-02T21:16:30.178Z,51.09
2022-08-02T21:19:00.373Z,50.70
2022-08-02T21:21:29.678Z,50.56
2022-08-02T21:24:01.688Z,50.70
2022-08-02T21:26:31.096Z,50.63
2022-08-02T21:31:49.037Z,50.92
2022-08-02T21:34:26.697Z,50.51
2022-08-02T21:36:55.809Z,50.65
2022-08-02T21:39:23.794Z,50.85
2022-08-02T21:41:51.422Z,50.88
2022-08-02T21:44:21.780Z,50.87
2022-08-02T21:46:54.901Z,50.62
2022-08-02T21:49:27.068Z,50.75
2022-08-02T21:52:09.287Z,50.41
2022-08-02T21:54:40.063Z,50.58
2022-08-02T21:57:15.418Z,50.50
2022-08-02T21:59:48.709Z,50.34
2022-08-02T22:05:14.187Z,50.41
2022-08-02T22:07:42.096Z,50.44
2022-08-02T22:10:13.657Z,50.46
2022-08-02T22:12:43.158Z,50.28
2022-08-02T22:15:12.562Z,50.60
2022-08-02T22:20:29.745Z,50.67
2022-08-02T22:22:57.501Z,50.64
2022-08-02T22:25:35.977Z,50.22
2022-08-02T22:28:38.051Z,50.11
2022-08-02T22:30:56.774Z,50.53
2022-08-02T22:33:47.265Z,50.35
2022-08-02T22:36:30.125Z,50.28
2022-08-02T22:38:59.766Z,50.36
2022-08-02T22:42:01.326Z,50.14
2022-08-02T22:44:16.867Z,50.33
2022-08-02T22:46:47.069Z,50.16
2022-08-02T22:49:38.015Z,50.14
2022-08-02T22:52:06.812Z,50.32
2022-08-02T22:54:36.320Z,50.25
2022-08-02T22:57:06.447Z,49.96
2022-08-02T22:59:04.572Z,50.13
2022-08-02T22:59:12.893Z,50.62
2022-08-02T22:59:36.508Z,50.37
2022-08-02T23:02:08.656Z,50.17
2022-08-02T23:04:37.215Z,50.23
2022-08-02T23:07:04.686Z,50.22
2022-08-02T23:09:33.040Z,49.99
2022-08-02T23:12:00.617Z,49.97
2022-08-02T23:14:28.192Z,50.16
2022-08-02T23:17:14.529Z,49.59
2022-08-02T23:19:50.805Z,49.59
2022-08-02T23:22:29.229Z,50.11
2022-08-02T23:25:01.024Z,49.95
2022-08-02T23:27:30.241Z,49.82
2022-08-02T23:29:59.120Z,49.76
2022-08-02T23:32:27.506Z,49.91
2022-08-02T23:34:56.380Z,49.64
2022-08-02T23:37:24.453Z,49.85
2022-08-02T23:39:52.153Z,49.55
2022-08-02T23:42:19.850Z,49.42
2022-08-02T23:44:47.232Z,49.23
2022-08-02T23:47:16.851Z,49.74
2022-08-02T23:49:44.932Z,49.47
2022-08-02T23:52:13.014Z,49.73
2022-08-02T23:54:41.335Z,49.43
2022-08-02T23:57:19.740Z,49.35
2022-08-02T23:59:50.543Z,49.42
